sensor_id;sensor_type;location;lat;lon;timestamp;temperature;humidity
54832;DHT22;40730;53.068;6.572;2022-08-07T00:01:21;10.10;99.90
54832;DHT22;40730;53.068;6.572;2022-08-07T00:03:47;10.10;99.90
54832;DHT22;40730;53.068;6.572;2022-08-07T00:06:13;10.00;99.90
54832;DHT22;40730;53.068;6.572;2022-08-07T00:08:39;10.00;99.90
54832;DHT22;40730;53.068;6.572;2022-08-07T00:11:05;10.10;99.90
54832;DHT22;40730;53.068;6.572;2022-08-07T00:13:32;10.10;99.90
54832;DHT22;40730;53.068;6.572;2022-08-07T00:15:58;10.00;99.90
54832;DHT22;40730;53.068;6.572;2022-08-07T00:18:26;10.00;99.90
54832;DHT22;40730;53.068;6.572;2022-08-07T00:20:55;9.90;99.90
54832;DHT22;40730;53.068;6.572;2022-08-07T00:23:21;9.90;99.90
54832;DHT22;40730;53.068;6.572;2022-08-07T00:25:46;9.90;99.90
54832;DHT22;40730;53.068;6.572;2022-08-07T00:28:13;9.70;99.90
54832;DHT22;40730;53.068;6.572;2022-08-07T00:30:38;9.80;99.90
54832;DHT22;40730;53.068;6.572;2022-08-07T00:33:04;9.80;99.90
54832;DHT22;40730;53.068;6.572;2022-08-07T00:35:30;9.70;99.90
54832;DHT22;40730;53.068;6.572;2022-08-07T00:37:55;9.70;99.90
54832;DHT22;40730;53.068;6.572;2022-08-07T00:40:21;9.70;99.90
54832;DHT22;40730;53.068;6.572;2022-08-07T00:42:47;9.70;99.90
54832;DHT22;40730;53.068;6.572;2022-08-07T00:45:13;9.70;99.90
54832;DHT22;40730;53.068;6.572;2022-08-07T00:47:39;9.60;99.90
54832;DHT22;40730;53.068;6.572;2022-08-07T00:50:05;9.60;99.90
54832;DHT22;40730;53.068;6.572;2022-08-07T00:52:31;9.60;99.90
54832;DHT22;40730;53.068;6.572;2022-08-07T00:54:57;9.60;99.90
54832;DHT22;40730;53.068;6.572;2022-08-07T00:57:24;9.60;99.90
54832;DHT22;40730;53.068;6.572;2022-08-07T00:59:50;9.60;99.90
54832;DHT22;40730;53.068;6.572;2022-08-07T01:02:16;9.50;99.90
54832;DHT22;40730;53.068;6.572;2022-08-07T01:04:42;9.50;99.90
54832;DHT22;40730;53.068;6.572;2022-08-07T01:07:08;9.40;99.90
54832;DHT22;40730;53.068;6.572;2022-08-07T01:09:33;9.40;99.90
54832;DHT22;40730;53.068;6.572;2022-08-07T01:12:00;9.30;99.90
54832;DHT22;40730;53.068;6.572;2022-08-07T01:14:26;9.30;99.90
54832;DHT22;40730;53.068;6.572;2022-08-07T01:16:52;9.30;99.90
54832;DHT22;40730;53.068;6.572;2022-08-07T01:19:20;9.40;99.90
54832;DHT22;40730;53.068;6.572;2022-08-07T01:21:47;9.50;99.90
54832;DHT22;40730;53.068;6.572;2022-08-07T01:24:15;9.60;99.90
54832;DHT22;40730;53.068;6.572;2022-08-07T01:26:41;9.70;99.90
54832;DHT22;40730;53.068;6.572;2022-08-07T01:29:07;9.70;99.90
54832;DHT22;40730;53.068;6.572;2022-08-07T01:31:33;9.80;99.90
54832;DHT22;40730;53.068;6.572;2022-08-07T01:34:00;9.80;99.90
54832;DHT22;40730;53.068;6.572;2022-08-07T01:36:27;9.80;99.90
54832;DHT22;40730;53.068;6.572;2022-08-07T01:38:57;9.70;99.90
54832;DHT22;40730;53.068;6.572;2022-08-07T01:41:23;9.60;99.90
54832;DHT22;40730;53.068;6.572;2022-08-07T01:43:50;9.60;99.90
54832;DHT22;40730;53.068;6.572;2022-08-07T01:46:16;9.50;99.90
54832;DHT22;40730;53.068;6.572;2022-08-07T01:48:43;9.50;99.90
54832;DHT22;40730;53.068;6.572;2022-08-07T01:51:18;9.50;99.90
54832;DHT22;40730;53.068;6.572;2022-08-07T01:53:46;9.50;99.90
54832;DHT22;40730;53.068;6.572;2022-08-07T01:56:21;9.50;99.90
54832;DHT22;40730;53.068;6.572;2022-08-07T01:59:02;9.50;99.90
54832;DHT22;40730;53.068;6.572;2022-08-07T02:01:34;9.50;99.90
54832;DHT22;40730;53.068;6.572;2022-08-07T02:04:19;9.50;99.90
54832;DHT22;40730;53.068;6.572;2022-08-07T02:06:47;9.50;99.90
54832;DHT22;40730;53.068;6.572;2022-08-07T02:09:16;9.60;99.90
54832;DHT22;40730;53.068;6.572;2022-08-07T02:11:44;9.60;99.90
54832;DHT22;40730;53.068;6.572;2022-08-07T02:14:11;9.60;99.90
54832;DHT22;40730;53.068;6.572;2022-08-07T02:16:38;9.50;99.90
54832;DHT22;40730;53.068;6.572;2022-08-07T02:19:07;9.50;99.90
54832;DHT22;40730;53.068;6.572;2022-08-07T02:21:36;9.50;99.90
54832;DHT22;40730;53.068;6.572;2022-08-07T02:24:04;9.40;99.90
54832;DHT22;40730;53.068;6.572;2022-08-07T02:26:32;9.40;99.90
54832;DHT22;40730;53.068;6.572;2022-08-07T02:28:59;9.40;99.90
54832;DHT22;40730;53.068;6.572;2022-08-07T02:31:26;9.30;99.90
54832;DHT22;40730;53.068;6.572;2022-08-07T02:33:53;9.30;99.90
54832;DHT22;40730;53.068;6.572;2022-08-07T02:36:22;9.30;99.90
54832;DHT22;40730;53.068;6.572;2022-08-07T02:38:48;9.20;99.90
54832;DHT22;40730;53.068;6.572;2022-08-07T02:41:15;9.20;99.90
54832;DHT22;40730;53.068;6.572;2022-08-07T02:43:41;9.10;99.90
54832;DHT22;40730;53.068;6.572;2022-08-07T02:46:08;9.10;99.90
54832;DHT22;40730;53.068;6.572;2022-08-07T02:48:35;9.10;99.90
54832;DHT22;40730;53.068;6.572;2022-08-07T02:51:09;9.00;99.90
54832;DHT22;40730;53.068;6.572;2022-08-07T02:53:37;9.00;99.90
54832;DHT22;40730;53.068;6.572;2022-08-07T02:56:06;9.00;99.90
54832;DHT22;40730;53.068;6.572;2022-08-07T02:58:33;8.90;99.90
54832;DHT22;40730;53.068;6.572;2022-08-07T03:01:01;8.90;99.90
54832;DHT22;40730;53.068;6.572;2022-08-07T03:03:30;8.80;99.90
54832;DHT22;40730;53.068;6.572;2022-08-07T03:05:58;8.80;99.90
54832;DHT22;40730;53.068;6.572;2022-08-07T03:08:24;8.70;99.90
54832;DHT22;40730;53.068;6.572;2022-08-07T03:10:51;8.70;99.90
54832;DHT22;40730;53.068;6.572;2022-08-07T03:13:17;8.70;99.90
54832;DHT22;40730;53.068;6.572;2022-08-07T03:15:43;8.70;99.90
54832;DHT22;40730;53.068;6.572;2022-08-07T03:18:10;8.70;99.90
54832;DHT22;40730;53.068;6.572;2022-08-07T03:20:38;8.70;99.90
54832;DHT22;40730;53.068;6.572;2022-08-07T03:23:04;8.70;99.90
54832;DHT22;40730;53.068;6.572;2022-08-07T03:25:32;8.70;99.90
54832;DHT22;40730;53.068;6.572;2022-08-07T03:28:00;8.70;99.90
54832;DHT22;40730;53.068;6.572;2022-08-07T03:30:27;8.70;99.90
54832;DHT22;40730;53.068;6.572;2022-08-07T03:32:55;8.70;99.90
54832;DHT22;40730;53.068;6.572;2022-08-07T03:35:23;8.70;99.90
54832;DHT22;40730;53.068;6.572;2022-08-07T03:37:57;8.70;99.90
54832;DHT22;40730;53.068;6.572;2022-08-07T03:40:24;8.60;99.90
54832;DHT22;40730;53.068;6.572;2022-08-07T03:42:50;8.70;99.90
54832;DHT22;40730;53.068;6.572;2022-08-07T03:45:18;8.70;99.90
54832;DHT22;40730;53.068;6.572;2022-08-07T03:47:44;8.70;99.90
54832;DHT22;40730;53.068;6.572;2022-08-07T03:50:09;8.70;99.90
54832;DHT22;40730;53.068;6.572;2022-08-07T03:52:35;8.70;99.90
54832;DHT22;40730;53.068;6.572;2022-08-07T03:55:03;8.60;99.90
54832;DHT22;40730;53.068;6.572;2022-08-07T03:57:30;8.70;99.90
54832;DHT22;40730;53.068;6.572;2022-08-07T03:59:56;8.70;99.90
54832;DHT22;40730;53.068;6.572;2022-08-07T04:02:23;8.60;99.90
54832;DHT22;40730;53.068;6.572;2022-08-07T04:04:49;8.60;99.90
54832;DHT22;40730;53.068;6.572;2022-08-07T04:07:16;8.60;99.90
54832;DHT22;40730;53.068;6.572;2022-08-07T04:09:44;8.60;99.90
54832;DHT22;40730;53.068;6.572;2022-08-07T04:12:10;8.70;99.90
54832;DHT22;40730;53.068;6.572;2022-08-07T04:14:36;8.70;99.90
54832;DHT22;40730;53.068;6.572;2022-08-07T04:17:03;8.70;99.90
54832;DHT22;40730;53.068;6.572;2022-08-07T04:19:29;8.80;99.90
54832;DHT22;40730;53.068;6.572;2022-08-07T04:21:54;8.70;99.90
54832;DHT22;40730;53.068;6.572;2022-08-07T04:24:21;8.80;99.90
54832;DHT22;40730;53.068;6.572;2022-08-07T04:26:47;8.80;99.90
54832;DHT22;40730;53.068;6.572;2022-08-07T04:29:12;8.70;99.90
54832;DHT22;40730;53.068;6.572;2022-08-07T04:31:38;8.70;99.90
54832;DHT22;40730;53.068;6.572;2022-08-07T04:34:07;8.70;99.90
54832;DHT22;40730;53.068;6.572;2022-08-07T04:36:34;8.80;99.90
54832;DHT22;40730;53.068;6.572;2022-08-07T04:39:01;8.90;99.90
54832;DHT22;40730;53.068;6.572;2022-08-07T04:41:26;9.00;99.90
54832;DHT22;40730;53.068;6.572;2022-08-07T04:43:53;9.10;99.90
54832;DHT22;40730;53.068;6.572;2022-08-07T04:46:56;9.60;99.90
54832;DHT22;40730;53.068;6.572;2022-08-07T04:49:43;9.70;99.90
54832;DHT22;40730;53.068;6.572;2022-08-07T04:54:58;10.20;99.90
54832;DHT22;40730;53.068;6.572;2022-08-07T04:57:35;10.40;99.90
54832;DHT22;40730;53.068;6.572;2022-08-07T05:00:06;10.60;99.90
54832;DHT22;40730;53.068;6.572;2022-08-07T05:02:55;10.80;99.90
54832;DHT22;40730;53.068;6.572;2022-08-07T05:05:28;10.80;99.90
54832;DHT22;40730;53.068;6.572;2022-08-07T05:08:13;10.80;99.90
54832;DHT22;40730;53.068;6.572;2022-08-07T05:10:46;10.80;99.90
54832;DHT22;40730;53.068;6.572;2022-08-07T05:13:19;11.00;99.90
54832;DHT22;40730;53.068;6.572;2022-08-07T05:15:49;11.10;99.90
54832;DHT22;40730;53.068;6.572;2022-08-07T05:20:50;11.10;99.90
54832;DHT22;40730;53.068;6.572;2022-08-07T05:23:24;11.10;99.90
54832;DHT22;40730;53.068;6.572;2022-08-07T05:25:51;11.20;99.90
54832;DHT22;40730;53.068;6.572;2022-08-07T05:28:18;11.20;99.90
54832;DHT22;40730;53.068;6.572;2022-08-07T05:30:45;11.20;99.90
54832;DHT22;40730;53.068;6.572;2022-08-07T05:33:12;11.20;99.90
54832;DHT22;40730;53.068;6.572;2022-08-07T05:35:38;11.30;99.90
54832;DHT22;40730;53.068;6.572;2022-08-07T05:38:05;11.40;99.90
54832;DHT22;40730;53.068;6.572;2022-08-07T05:40:33;11.50;99.90
54832;DHT22;40730;53.068;6.572;2022-08-07T05:43:00;11.60;99.90
54832;DHT22;40730;53.068;6.572;2022-08-07T05:45:26;11.70;99.90
54832;DHT22;40730;53.068;6.572;2022-08-07T05:47:54;11.80;99.90
54832;DHT22;40730;53.068;6.572;2022-08-07T05:50:20;11.90;99.90
54832;DHT22;40730;53.068;6.572;2022-08-07T05:52:46;12.00;99.90
54832;DHT22;40730;53.068;6.572;2022-08-07T05:55:12;12.10;99.90
54832;DHT22;40730;53.068;6.572;2022-08-07T05:57:39;12.20;99.90
54832;DHT22;40730;53.068;6.572;2022-08-07T06:00:06;12.30;99.90
54832;DHT22;40730;53.068;6.572;2022-08-07T06:02:34;12.50;99.90
54832;DHT22;40730;53.068;6.572;2022-08-07T06:05:09;12.60;99.90
54832;DHT22;40730;53.068;6.572;2022-08-07T06:07:35;12.70;99.90
54832;DHT22;40730;53.068;6.572;2022-08-07T06:10:01;12.80;99.90
54832;DHT22;40730;53.068;6.572;2022-08-07T06:12:28;12.90;99.90
54832;DHT22;40730;53.068;6.572;2022-08-07T06:14:55;13.00;99.90
54832;DHT22;40730;53.068;6.572;2022-08-07T06:17:22;13.10;99.90
54832;DHT22;40730;53.068;6.572;2022-08-07T06:19:48;13.20;99.90
54832;DHT22;40730;53.068;6.572;2022-08-07T06:22:15;13.40;99.90
54832;DHT22;40730;53.068;6.572;2022-08-07T06:24:41;13.60;99.90
54832;DHT22;40730;53.068;6.572;2022-08-07T06:27:07;13.70;99.90
54832;DHT22;40730;53.068;6.572;2022-08-07T06:29:33;13.90;99.90
54832;DHT22;40730;53.068;6.572;2022-08-07T06:31:59;14.10;99.90
54832;DHT22;40730;53.068;6.572;2022-08-07T06:34:26;14.10;99.90
54832;DHT22;40730;53.068;6.572;2022-08-07T06:36:52;14.30;99.90
54832;DHT22;40730;53.068;6.572;2022-08-07T06:39:19;14.50;99.90
54832;DHT22;40730;53.068;6.572;2022-08-07T06:41:47;14.60;99.90
54832;DHT22;40730;53.068;6.572;2022-08-07T06:44:14;14.80;99.90
54832;DHT22;40730;53.068;6.572;2022-08-07T06:46:41;15.00;99.90
54832;DHT22;40730;53.068;6.572;2022-08-07T06:49:07;15.20;99.90
54832;DHT22;40730;53.068;6.572;2022-08-07T06:51:33;15.40;99.90
54832;DHT22;40730;53.068;6.572;2022-08-07T06:54:02;15.60;99.90
54832;DHT22;40730;53.068;6.572;2022-08-07T06:56:29;15.70;99.90
54832;DHT22;40730;53.068;6.572;2022-08-07T06:59:06;15.90;99.90
54832;DHT22;40730;53.068;6.572;2022-08-07T07:01:33;16.10;99.90
54832;DHT22;40730;53.068;6.572;2022-08-07T07:03:59;16.30;99.90
54832;DHT22;40730;53.068;6.572;2022-08-07T07:06:25;16.50;99.90
54832;DHT22;40730;53.068;6.572;2022-08-07T07:08:50;16.60;99.90
54832;DHT22;40730;53.068;6.572;2022-08-07T07:11:16;16.80;99.90
54832;DHT22;40730;53.068;6.572;2022-08-07T07:13:46;17.00;99.90
54832;DHT22;40730;53.068;6.572;2022-08-07T07:16:18;17.20;99.90
54832;DHT22;40730;53.068;6.572;2022-08-07T07:18:50;17.40;99.90
54832;DHT22;40730;53.068;6.572;2022-08-07T07:21:26;17.60;99.90
54832;DHT22;40730;53.068;6.572;2022-08-07T07:23:53;17.80;99.90
54832;DHT22;40730;53.068;6.572;2022-08-07T07:26:21;18.00;99.90
54832;DHT22;40730;53.068;6.572;2022-08-07T07:28:56;18.20;99.90
54832;DHT22;40730;53.068;6.572;2022-08-07T07:31:32;18.40;99.90
54832;DHT22;40730;53.068;6.572;2022-08-07T07:34:03;18.50;99.90
54832;DHT22;40730;53.068;6.572;2022-08-07T07:36:32;18.80;99.90
54832;DHT22;40730;53.068;6.572;2022-08-07T07:39:02;18.90;99.90
54832;DHT22;40730;53.068;6.572;2022-08-07T07:41:29;19.00;99.90
54832;DHT22;40730;53.068;6.572;2022-08-07T07:43:57;19.30;99.30
54832;DHT22;40730;53.068;6.572;2022-08-07T07:46:25;19.50;97.30
54832;DHT22;40730;53.068;6.572;2022-08-07T07:48:51;19.70;95.10
54832;DHT22;40730;53.068;6.572;2022-08-07T07:51:18;19.90;93.80
54832;DHT22;40730;53.068;6.572;2022-08-07T07:53:45;19.80;93.10
54832;DHT22;40730;53.068;6.572;2022-08-07T07:56:12;19.80;94.10
54832;DHT22;40730;53.068;6.572;2022-08-07T07:58:39;19.80;93.40
54832;DHT22;40730;53.068;6.572;2022-08-07T08:01:06;20.00;92.80
54832;DHT22;40730;53.068;6.572;2022-08-07T08:03:34;20.20;91.60
54832;DHT22;40730;53.068;6.572;2022-08-07T08:06:01;20.40;87.40
54832;DHT22;40730;53.068;6.572;2022-08-07T08:08:29;20.30;86.30
54832;DHT22;40730;53.068;6.572;2022-08-07T08:10:58;20.50;86.00
54832;DHT22;40730;53.068;6.572;2022-08-07T08:13:25;20.80;86.10
54832;DHT22;40730;53.068;6.572;2022-08-07T08:15:52;21.00;83.30
54832;DHT22;40730;53.068;6.572;2022-08-07T08:18:19;21.10;82.40
54832;DHT22;40730;53.068;6.572;2022-08-07T08:20:47;21.20;80.80
54832;DHT22;40730;53.068;6.572;2022-08-07T08:23:14;21.10;80.50
54832;DHT22;40730;53.068;6.572;2022-08-07T08:26:02;21.00;80.30
54832;DHT22;40730;53.068;6.572;2022-08-07T08:28:49;21.00;81.10
54832;DHT22;40730;53.068;6.572;2022-08-07T08:31:23;21.10;80.10
54832;DHT22;40730;53.068;6.572;2022-08-07T08:33:52;21.20;80.00
54832;DHT22;40730;53.068;6.572;2022-08-07T08:36:22;21.40;80.60
54832;DHT22;40730;53.068;6.572;2022-08-07T08:38:49;21.60;80.50
54832;DHT22;40730;53.068;6.572;2022-08-07T08:44:21;21.70;76.20
54832;DHT22;40730;53.068;6.572;2022-08-07T08:47:13;22.00;75.30
54832;DHT22;40730;53.068;6.572;2022-08-07T08:49:48;22.20;74.00
54832;DHT22;40730;53.068;6.572;2022-08-07T08:54:58;22.80;72.50
54832;DHT22;40730;53.068;6.572;2022-08-07T08:57:41;22.90;70.30
54832;DHT22;40730;53.068;6.572;2022-08-07T09:00:10;22.90;70.20
54832;DHT22;40730;53.068;6.572;2022-08-07T09:08:54;23.50;68.50
54832;DHT22;40730;53.068;6.572;2022-08-07T09:11:42;23.80;66.70
54832;DHT22;40730;53.068;6.572;2022-08-07T09:14:16;24.10;65.80
54832;DHT22;40730;53.068;6.572;2022-08-07T09:19:54;24.40;62.60
54832;DHT22;40730;53.068;6.572;2022-08-07T09:22:52;24.30;61.90
54832;DHT22;40730;53.068;6.572;2022-08-07T09:25:32;24.30;63.20
54832;DHT22;40730;53.068;6.572;2022-08-07T09:28:06;24.40;61.50
54832;DHT22;40730;53.068;6.572;2022-08-07T09:30:55;24.90;59.90
54832;DHT22;40730;53.068;6.572;2022-08-07T09:33:34;25.00;59.10
54832;DHT22;40730;53.068;6.572;2022-08-07T09:36:17;24.70;58.90
54832;DHT22;40730;53.068;6.572;2022-08-07T09:41:53;25.00;59.20
54832;DHT22;40730;53.068;6.572;2022-08-07T09:50:07;25.80;58.30
54832;DHT22;40730;53.068;6.572;2022-08-07T09:52:59;26.30;56.50
54832;DHT22;40730;53.068;6.572;2022-08-07T10:01:25;26.80;52.10
54832;DHT22;40730;53.068;6.572;2022-08-07T10:07:12;27.10;50.90
54832;DHT22;40730;53.068;6.572;2022-08-07T10:10:04;27.30;50.70
54832;DHT22;40730;53.068;6.572;2022-08-07T10:21:18;27.70;50.30
54832;DHT22;40730;53.068;6.572;2022-08-07T10:26:29;27.90;49.60
54832;DHT22;40730;53.068;6.572;2022-08-07T10:34:06;28.00;50.50
54832;DHT22;40730;53.068;6.572;2022-08-07T10:40:03;28.90;48.90
54832;DHT22;40730;53.068;6.572;2022-08-07T10:42:57;29.40;48.00
54832;DHT22;40730;53.068;6.572;2022-08-07T10:45:26;29.20;44.10
54832;DHT22;40730;53.068;6.572;2022-08-07T10:51:16;29.10;45.80
54832;DHT22;40730;53.068;6.572;2022-08-07T10:59:25;29.50;43.60
54832;DHT22;40730;53.068;6.572;2022-08-07T11:02:03;29.40;43.00
54832;DHT22;40730;53.068;6.572;2022-08-07T11:04:45;29.80;43.20
54832;DHT22;40730;53.068;6.572;2022-08-07T11:10:22;30.60;42.50
54832;DHT22;40730;53.068;6.572;2022-08-07T11:13:19;30.50;41.40
54832;DHT22;40730;53.068;6.572;2022-08-07T11:15:47;30.50;42.20
54832;DHT22;40730;53.068;6.572;2022-08-07T11:18:19;30.70;41.60
54832;DHT22;40730;53.068;6.572;2022-08-07T11:24:07;31.00;41.90
54832;DHT22;40730;53.068;6.572;2022-08-07T11:26:50;31.00;41.40
54832;DHT22;40730;53.068;6.572;2022-08-07T11:32:05;30.30;39.90
54832;DHT22;40730;53.068;6.572;2022-08-07T11:34:40;30.20;41.00
54832;DHT22;40730;53.068;6.572;2022-08-07T11:57:14;31.90;38.10
54832;DHT22;40730;53.068;6.572;2022-08-07T11:59:57;31.70;39.00
54832;DHT22;40730;53.068;6.572;2022-08-07T12:07:54;31.80;37.10
54832;DHT22;40730;53.068;6.572;2022-08-07T12:10:36;32.10;38.20
54832;DHT22;40730;53.068;6.572;2022-08-07T12:16:17;32.80;36.60
54832;DHT22;40730;53.068;6.572;2022-08-07T12:21:34;32.60;35.40
54832;DHT22;40730;53.068;6.572;2022-08-07T12:24:18;32.90;36.30
54832;DHT22;40730;53.068;6.572;2022-08-07T12:27:01;33.00;37.00
54832;DHT22;40730;53.068;6.572;2022-08-07T12:29:41;32.40;37.40
54832;DHT22;40730;53.068;6.572;2022-08-07T12:32:20;31.70;37.70
54832;DHT22;40730;53.068;6.572;2022-08-07T12:34:52;31.10;39.40
54832;DHT22;40730;53.068;6.572;2022-08-07T12:37:20;31.10;39.00
54832;DHT22;40730;53.068;6.572;2022-08-07T12:39:48;31.10;39.60
54832;DHT22;40730;53.068;6.572;2022-08-07T12:42:19;30.90;39.70
54832;DHT22;40730;53.068;6.572;2022-08-07T12:44:46;30.60;40.60
54832;DHT22;40730;53.068;6.572;2022-08-07T12:47:22;30.50;40.40
54832;DHT22;40730;53.068;6.572;2022-08-07T12:49:56;30.50;40.40
54832;DHT22;40730;53.068;6.572;2022-08-07T12:52:46;30.10;40.60
54832;DHT22;40730;53.068;6.572;2022-08-07T12:55:20;30.00;40.90
54832;DHT22;40730;53.068;6.572;2022-08-07T12:57:46;29.70;41.10
54832;DHT22;40730;53.068;6.572;2022-08-07T13:00:13;29.80;42.50
54832;DHT22;40730;53.068;6.572;2022-08-07T13:06:10;30.90;40.00
54832;DHT22;40730;53.068;6.572;2022-08-07T13:09:15;31.30;40.20
54832;DHT22;40730;53.068;6.572;2022-08-07T13:11:59;31.60;39.60
54832;DHT22;40730;53.068;6.572;2022-08-07T13:17:32;31.80;39.60
54832;DHT22;40730;53.068;6.572;2022-08-07T13:20:05;32.20;39.20
54832;DHT22;40730;53.068;6.572;2022-08-07T13:25:33;31.30;40.70
54832;DHT22;40730;53.068;6.572;2022-08-07T13:28:07;30.60;41.10
54832;DHT22;40730;53.068;6.572;2022-08-07T13:30:36;29.60;42.60
54832;DHT22;40730;53.068;6.572;2022-08-07T13:33:06;28.30;44.10
54832;DHT22;40730;53.068;6.572;2022-08-07T13:35:41;27.20;45.70
54832;DHT22;40730;53.068;6.572;2022-08-07T13:38:33;26.20;47.60
54832;DHT22;40730;53.068;6.572;2022-08-07T13:41:24;25.50;49.10
54832;DHT22;40730;53.068;6.572;2022-08-07T13:43:53;25.00;51.60
54832;DHT22;40730;53.068;6.572;2022-08-07T13:46:20;24.60;53.20
54832;DHT22;40730;53.068;6.572;2022-08-07T13:48:48;24.20;53.20
54832;DHT22;40730;53.068;6.572;2022-08-07T13:51:17;23.90;55.30
54832;DHT22;40730;53.068;6.572;2022-08-07T13:53:51;23.60;56.10
54832;DHT22;40730;53.068;6.572;2022-08-07T13:56:21;23.40;57.00
54832;DHT22;40730;53.068;6.572;2022-08-07T13:58:47;23.30;57.00
54832;DHT22;40730;53.068;6.572;2022-08-07T14:01:35;23.10;55.90
54832;DHT22;40730;53.068;6.572;2022-08-07T14:04:10;23.00;57.30
54832;DHT22;40730;53.068;6.572;2022-08-07T14:06:39;22.80;57.40
54832;DHT22;40730;53.068;6.572;2022-08-07T14:09:22;22.80;56.50
54832;DHT22;40730;53.068;6.572;2022-08-07T14:11:52;22.90;56.00
54832;DHT22;40730;53.068;6.572;2022-08-07T14:14:20;23.00;56.60
54832;DHT22;40730;53.068;6.572;2022-08-07T14:16:50;22.90;58.00
54832;DHT22;40730;53.068;6.572;2022-08-07T14:19:28;22.90;57.70
54832;DHT22;40730;53.068;6.572;2022-08-07T14:21:54;22.90;57.60
54832;DHT22;40730;53.068;6.572;2022-08-07T14:24:35;22.90;57.10
54832;DHT22;40730;53.068;6.572;2022-08-07T14:27:04;22.70;57.70
54832;DHT22;40730;53.068;6.572;2022-08-07T14:29:40;22.50;59.10
54832;DHT22;40730;53.068;6.572;2022-08-07T14:32:09;22.40;59.60
54832;DHT22;40730;53.068;6.572;2022-08-07T14:34:40;22.30;60.50
54832;DHT22;40730;53.068;6.572;2022-08-07T14:37:20;22.20;60.60
54832;DHT22;40730;53.068;6.572;2022-08-07T14:39:47;22.10;60.30
54832;DHT22;40730;53.068;6.572;2022-08-07T14:42:14;22.00;60.40
54832;DHT22;40730;53.068;6.572;2022-08-07T14:44:51;22.00;60.60
54832;DHT22;40730;53.068;6.572;2022-08-07T14:47:17;21.90;59.80
54832;DHT22;40730;53.068;6.572;2022-08-07T14:49:44;22.00;59.50
54832;DHT22;40730;53.068;6.572;2022-08-07T14:52:12;22.20;59.70
54832;DHT22;40730;53.068;6.572;2022-08-07T14:54:40;22.30;60.50
54832;DHT22;40730;53.068;6.572;2022-08-07T14:57:11;22.40;60.40
54832;DHT22;40730;53.068;6.572;2022-08-07T14:59:38;22.40;58.10
54832;DHT22;40730;53.068;6.572;2022-08-07T15:02:16;22.40;57.90
54832;DHT22;40730;53.068;6.572;2022-08-07T15:04:44;22.40;59.00
54832;DHT22;40730;53.068;6.572;2022-08-07T15:07:17;22.40;58.20
54832;DHT22;40730;53.068;6.572;2022-08-07T15:09:44;22.40;58.60
54832;DHT22;40730;53.068;6.572;2022-08-07T15:12:27;22.20;58.50
54832;DHT22;40730;53.068;6.572;2022-08-07T15:15:03;22.20;58.70
54832;DHT22;40730;53.068;6.572;2022-08-07T15:17:33;22.10;59.80
54832;DHT22;40730;53.068;6.572;2022-08-07T15:20:04;22.00;60.00
54832;DHT22;40730;53.068;6.572;2022-08-07T15:22:44;22.00;59.80
54832;DHT22;40730;53.068;6.572;2022-08-07T15:25:13;21.90;60.10
54832;DHT22;40730;53.068;6.572;2022-08-07T15:27:44;21.90;61.20
54832;DHT22;40730;53.068;6.572;2022-08-07T15:30:12;21.80;62.10
54832;DHT22;40730;53.068;6.572;2022-08-07T15:32:41;21.80;62.70
54832;DHT22;40730;53.068;6.572;2022-08-07T15:35:22;21.70;63.20
54832;DHT22;40730;53.068;6.572;2022-08-07T15:37:53;21.90;63.10
54832;DHT22;40730;53.068;6.572;2022-08-07T15:40:21;22.10;63.00
54832;DHT22;40730;53.068;6.572;2022-08-07T15:45:37;22.00;63.80
54832;DHT22;40730;53.068;6.572;2022-08-07T15:50:40;21.70;63.00
54832;DHT22;40730;53.068;6.572;2022-08-07T15:53:22;21.40;63.40
54832;DHT22;40730;53.068;6.572;2022-08-07T15:55:57;21.20;63.50
54832;DHT22;40730;53.068;6.572;2022-08-07T15:58:51;21.00;64.70
54832;DHT22;40730;53.068;6.572;2022-08-07T16:01:30;20.90;65.30
54832;DHT22;40730;53.068;6.572;2022-08-07T16:03:59;20.80;66.10
54832;DHT22;40730;53.068;6.572;2022-08-07T16:06:31;20.80;66.70
54832;DHT22;40730;53.068;6.572;2022-08-07T16:09:01;20.80;66.90
54832;DHT22;40730;53.068;6.572;2022-08-07T16:11:59;20.80;66.80
54832;DHT22;40730;53.068;6.572;2022-08-07T16:17:44;20.90;66.10
54832;DHT22;40730;53.068;6.572;2022-08-07T16:23:16;21.10;65.10
54832;DHT22;40730;53.068;6.572;2022-08-07T16:28:37;21.10;65.00
54832;DHT22;40730;53.068;6.572;2022-08-07T16:31:39;21.10;65.20
54832;DHT22;40730;53.068;6.572;2022-08-07T16:34:11;21.10;64.30
54832;DHT22;40730;53.068;6.572;2022-08-07T16:45:16;21.50;62.60
54832;DHT22;40730;53.068;6.572;2022-08-07T17:03:54;21.20;62.20
54832;DHT22;40730;53.068;6.572;2022-08-07T17:06:42;21.30;62.90
54832;DHT22;40730;53.068;6.572;2022-08-07T17:09:18;21.20;63.20
54832;DHT22;40730;53.068;6.572;2022-08-07T17:17:33;20.90;66.00
54832;DHT22;40730;53.068;6.572;2022-08-07T17:20:10;20.80;67.30
54832;DHT22;40730;53.068;6.572;2022-08-07T17:22:55;20.60;68.80
54832;DHT22;40730;53.068;6.572;2022-08-07T17:25:33;20.60;71.70
54832;DHT22;40730;53.068;6.572;2022-08-07T17:28:16;20.50;74.00
54832;DHT22;40730;53.068;6.572;2022-08-07T17:33:35;20.20;77.30
54832;DHT22;40730;53.068;6.572;2022-08-07T17:50:18;20.00;84.30
54832;DHT22;40730;53.068;6.572;2022-08-07T17:52:52;19.90;84.50
54832;DHT22;40730;53.068;6.572;2022-08-07T17:55:48;20.00;85.10
54832;DHT22;40730;53.068;6.572;2022-08-07T17:58:19;19.90;85.70
54832;DHT22;40730;53.068;6.572;2022-08-07T18:00:51;19.80;86.40
54832;DHT22;40730;53.068;6.572;2022-08-07T18:06:14;19.60;88.10
54832;DHT22;40730;53.068;6.572;2022-08-07T18:08:48;19.50;90.00
54832;DHT22;40730;53.068;6.572;2022-08-07T18:11:25;19.40;91.00
54832;DHT22;40730;53.068;6.572;2022-08-07T18:14:09;19.30;92.00
54832;DHT22;40730;53.068;6.572;2022-08-07T18:16:56;19.20;92.80
54832;DHT22;40730;53.068;6.572;2022-08-07T18:19:39;19.10;93.70
54832;DHT22;40730;53.068;6.572;2022-08-07T18:22:29;19.00;94.90
54832;DHT22;40730;53.068;6.572;2022-08-07T18:24:57;18.90;95.90
54832;DHT22;40730;53.068;6.572;2022-08-07T18:27:48;18.80;96.70
54832;DHT22;40730;53.068;6.572;2022-08-07T18:30:32;18.70;97.50
54832;DHT22;40730;53.068;6.572;2022-08-07T18:41:36;18.40;99.60
54832;DHT22;40730;53.068;6.572;2022-08-07T18:44:25;18.30;99.90
54832;DHT22;40730;53.068;6.572;2022-08-07T18:47:04;18.30;99.90
54832;DHT22;40730;53.068;6.572;2022-08-07T18:52:24;18.10;99.90
54832;DHT22;40730;53.068;6.572;2022-08-07T19:00:21;17.80;99.90
54832;DHT22;40730;53.068;6.572;2022-08-07T19:03:16;17.70;99.90
54832;DHT22;40730;53.068;6.572;2022-08-07T19:06:08;17.60;99.90
54832;DHT22;40730;53.068;6.572;2022-08-07T19:11:11;17.40;99.90
54832;DHT22;40730;53.068;6.572;2022-08-07T19:13:59;17.40;99.90
54832;DHT22;40730;53.068;6.572;2022-08-07T19:16:38;17.30;99.90
54832;DHT22;40730;53.068;6.572;2022-08-07T19:22:22;17.10;99.90
54832;DHT22;40730;53.068;6.572;2022-08-07T19:24:48;17.00;99.90
54832;DHT22;40730;53.068;6.572;2022-08-07T19:27:35;16.90;99.90